Time;durP1;ratioP1;P1;durP2;ratioP2;P2;SDS_P1;SDS_P2;PMS_P1;PMS_P2;Temp;Humidity;BMP_temperature;BMP_pressure;BME280_temperature;BME280_humidity;BME280_pressure;Samples;Min_cycle;Max_cycle;Signal;HPM_P1;HPM_P2
2021/06/30 00:00:48;;;;;;;7.55;4.68;;;;;;;;;;1434587;41;20401;-86
2021/06/30 00:01:49;;;;;;;9.93;4.75;;;;;;;;;;1432135;41;20438;-87
2021/06/30 00:02:51;;;;;;;10.60;4.03;;;;;;;;;;1429741;41;20563;-85
2021/06/30 00:03:58;;;;;;;7.15;3.90;;;;;;;;;;1430183;41;20399;-83
2021/06/30 00:05:06;;;;;;;12.02;4.57;;;;;;;;;;1433302;41;20534;-84
2021/06/30 00:06:13;;;;;;;8.48;4.18;;;;;;;;;;1434064;41;20413;-84
2021/06/30 00:07:21;;;;;;;10.15;4.82;;;;;;;;;;1433831;41;20409;-84
2021/06/30 00:08:27;;;;;;;9.32;4.63;;;;;;;;;;1434226;41;20772;-84
2021/06/30 00:09:29;;;;;;;8.00;5.05;;;;;;;;;;1438083;41;20450;-83
2021/06/30 00:10:30;;;;;;;11.43;4.65;;;;;;;;;;1433479;41;20425;-84
2021/06/30 00:11:37;;;;;;;6.80;4.63;;;;;;;;;;1433781;41;20420;-83
2021/06/30 00:12:43;;;;;;;11.52;4.50;;;;;;;;;;1436698;41;20422;-84
2021/06/30 00:13:50;;;;;;;8.23;4.30;;;;;;;;;;1437797;41;20395;-83
2021/06/30 00:14:56;;;;;;;6.93;3.92;;;;;;;;;;1441453;41;20780;-84
2021/06/30 00:15:58;;;;;;;7.05;4.63;;;;;;;;;;1441524;41;20417;-84
2021/06/30 00:17:06;;;;;;;8.50;3.90;;;;;;;;;;1434871;41;20400;-84
2021/06/30 00:18:12;;;;;;;8.93;3.70;;;;;;;;;;1429444;41;20865;-84
2021/06/30 00:19:19;;;;;;;6.50;3.70;;;;;;;;;;1430640;41;20430;-83
2021/06/30 00:20:26;;;;;;;7.78;3.90;;;;;;;;;;1434639;41;20428;-84
2021/06/30 00:21:32;;;;;;;9.30;3.58;;;;;;;;;;1438761;41;20407;-84
2021/06/30 00:22:39;;;;;;;8.10;3.95;;;;;;;;;;1438657;41;20427;-84
2021/06/30 00:23:42;;;;;;;8.38;3.90;;;;;;;;;;1439226;41;20431;-84
2021/06/30 00:24:49;;;;;;;11.20;3.53;;;;;;;;;;1429633;41;20568;-83
2021/06/30 00:25:55;;;;;;;8.85;3.88;;;;;;;;;;1432066;41;20418;-85
2021/06/30 00:26:57;;;;;;;4.70;3.80;;;;;;;;;;1439544;41;20430;-84
2021/06/30 00:28:03;;;;;;;8.45;4.00;;;;;;;;;;1437722;41;20676;-84
2021/06/30 00:29:10;;;;;;;9.15;4.32;;;;;;;;;;1434394;41;20437;-84
2021/06/30 00:30:18;;;;;;;11.23;3.45;;;;;;;;;;1439218;41;20495;-84
2021/06/30 00:31:24;;;;;;;6.50;3.88;;;;;;;;;;1442945;41;20411;-84
2021/06/30 00:32:26;;;;;;;5.95;3.25;;;;;;;;;;1443485;41;20407;-84
2021/06/30 00:33:27;;;;;;;5.03;3.88;;;;;;;;;;1443559;41;20426;-84
2021/06/30 00:34:34;;;;;;;7.93;3.87;;;;;;;;;;1443527;41;20412;-85
2021/06/30 00:35:35;;;;;;;5.88;3.50;;;;;;;;;;1443267;41;20422;-84
2021/06/30 00:36:47;;;;;;;7.63;3.05;;;;;;;;;;1439708;41;20403;-84
2021/06/30 00:37:53;;;;;;;9.00;3.92;;;;;;;;;;1433492;41;20412;-84
2021/06/30 00:39:02;;;;;;;8.20;3.83;;;;;;;;;;1434138;41;20776;-84
2021/06/30 00:40:10;;;;;;;5.45;3.50;;;;;;;;;;1435320;41;20421;-84
2021/06/30 00:41:17;;;;;;;7.75;3.33;;;;;;;;;;1434912;41;20417;-84
2021/06/30 00:42:27;;;;;;;6.43;3.58;;;;;;;;;;1434688;41;20389;-84
2021/06/30 00:43:33;;;;;;;5.80;3.72;;;;;;;;;;1434329;41;20413;-84
2021/06/30 00:44:41;;;;;;;6.55;3.13;;;;;;;;;;1430166;41;20429;-84
2021/06/30 00:45:48;;;;;;;4.22;3.00;;;;;;;;;;1430661;41;20418;-85
2021/06/30 00:46:55;;;;;;;8.10;3.03;;;;;;;;;;1430329;41;20426;-83
2021/06/30 00:47:56;;;;;;;4.00;2.67;;;;;;;;;;1430083;41;20434;-84
2021/06/30 00:49:05;;;;;;;5.05;2.83;;;;;;;;;;1435952;41;20508;-83
2021/06/30 00:50:08;;;;;;;6.57;3.30;;;;;;;;;;1437677;41;20431;-84
2021/06/30 00:51:14;;;;;;;6.05;3.15;;;;;;;;;;1434219;41;20429;-84
2021/06/30 00:52:21;;;;;;;7.35;3.47;;;;;;;;;;1432733;41;20434;-84
2021/06/30 00:53:22;;;;;;;6.03;3.33;;;;;;;;;;1439157;41;20426;-83
2021/06/30 00:54:29;;;;;;;4.28;3.10;;;;;;;;;;1434553;41;20456;-84
2021/06/30 00:55:35;;;;;;;7.40;3.72;;;;;;;;;;1426503;41;20416;-84
2021/06/30 00:56:42;;;;;;;4.13;3.53;;;;;;;;;;1429145;41;20416;-84
2021/06/30 00:57:49;;;;;;;5.10;3.67;;;;;;;;;;1438749;41;20398;-84
2021/06/30 00:58:57;;;;;;;5.40;3.30;;;;;;;;;;1438442;41;20419;-83
2021/06/30 01:00:06;;;;;;;5.43;3.83;;;;;;;;;;1438660;41;20431;-84
2021/06/30 01:01:07;;;;;;;6.55;3.97;;;;;;;;;;1438779;41;20435;-83
2021/06/30 01:02:09;;;;;;;5.78;3.75;;;;;;;;;;1439638;41;20439;-84
2021/06/30 01:03:16;;;;;;;7.53;4.43;;;;;;;;;;1442838;41;20442;-82
2021/06/30 01:04:17;;;;;;;8.25;4.43;;;;;;;;;;1443149;41;20447;-83
2021/06/30 01:05:19;;;;;;;6.57;5.03;;;;;;;;;;1439252;41;20466;-84
2021/06/30 01:06:25;;;;;;;9.70;5.63;;;;;;;;;;1439608;41;20421;-84
2021/06/30 01:07:32;;;;;;;10.77;6.22;;;;;;;;;;1441911;41;21032;-84
2021/06/30 01:08:39;;;;;;;11.75;6.53;;;;;;;;;;1441290;41;20438;-84
2021/06/30 01:09:45;;;;;;;10.93;6.55;;;;;;;;;;1443895;41;20427;-84
2021/06/30 01:10:47;;;;;;;12.13;6.82;;;;;;;;;;1441676;41;20423;-84
2021/06/30 01:11:53;;;;;;;13.95;7.18;;;;;;;;;;1436324;41;20391;-83
2021/06/30 01:13:03;;;;;;;10.27;6.43;;;;;;;;;;1437579;41;20438;-84
2021/06/30 01:14:10;;;;;;;8.18;6.18;;;;;;;;;;1440497;41;20410;-83
2021/06/30 01:15:18;;;;;;;13.05;6.90;;;;;;;;;;1440582;41;20416;-83
2021/06/30 01:16:24;;;;;;;9.77;6.20;;;;;;;;;;1440407;41;20390;-83
2021/06/30 01:17:32;;;;;;;8.90;6.40;;;;;;;;;;1439841;41;20395;-83
2021/06/30 01:18:38;;;;;;;10.00;6.68;;;;;;;;;;1434746;41;20408;-83
2021/06/30 01:19:45;;;;;;;13.15;6.53;;;;;;;;;;1433935;41;20435;-84
2021/06/30 01:20:46;;;;;;;8.50;6.97;;;;;;;;;;1438778;41;20411;-84
2021/06/30 01:21:54;;;;;;;10.82;6.55;;;;;;;;;;1438532;41;20521;-84
2021/06/30 01:23:10;;;;;;;9.75;6.18;;;;;;;;;;1431499;41;20437;-84
2021/06/30 01:24:18;;;;;;;9.63;5.93;;;;;;;;;;1433560;41;20396;-83
2021/06/30 01:25:24;;;;;;;10.82;6.90;;;;;;;;;;1438143;41;20407;-83
2021/06/30 01:26:30;;;;;;;11.07;6.22;;;;;;;;;;1433001;41;20428;-84
2021/06/30 01:27:37;;;;;;;11.35;5.85;;;;;;;;;;1434270;41;20432;-84
2021/06/30 01:28:44;;;;;;;13.43;6.53;;;;;;;;;;1438802;41;20423;-84
2021/06/30 01:29:50;;;;;;;10.75;6.10;;;;;;;;;;1438067;41;20568;-84
2021/06/30 01:30:54;;;;;;;8.40;5.53;;;;;;;;;;1432323;41;20564;-83
2021/06/30 01:32:00;;;;;;;7.47;5.93;;;;;;;;;;1430980;41;20411;-83
2021/06/30 01:33:07;;;;;;;8.37;6.80;;;;;;;;;;1435119;41;20535;-83
2021/06/30 01:34:14;;;;;;;11.90;5.88;;;;;;;;;;1438907;41;20786;-83
2021/06/30 01:35:21;;;;;;;10.65;4.90;;;;;;;;;;1438851;41;20535;-84
2021/06/30 01:36:28;;;;;;;8.02;6.30;;;;;;;;;;1438644;41;20399;-83
2021/06/30 01:37:44;;;;;;;12.13;6.85;;;;;;;;;;1438011;41;20415;-84
2021/06/30 01:38:51;;;;;;;10.50;5.90;;;;;;;;;;1435030;41;20413;-84
2021/06/30 01:39:58;;;;;;;9.93;6.43;;;;;;;;;;1432014;41;20437;-84
2021/06/30 01:41:04;;;;;;;11.23;6.78;;;;;;;;;;1436174;41;20401;-83
2021/06/30 01:42:11;;;;;;;10.60;6.60;;;;;;;;;;1440010;41;20406;-84
2021/06/30 01:43:12;;;;;;;8.40;5.93;;;;;;;;;;1438373;41;20419;-84
2021/06/30 01:44:19;;;;;;;10.85;6.30;;;;;;;;;;1433938;41;20424;-83
2021/06/30 01:45:21;;;;;;;11.60;6.40;;;;;;;;;;1434517;41;20429;-84
2021/06/30 01:46:24;;;;;;;8.00;5.97;;;;;;;;;;1438338;41;20420;-84
2021/06/30 01:47:30;;;;;;;10.15;6.28;;;;;;;;;;1430159;41;20421;-83
2021/06/30 01:48:37;;;;;;;8.07;5.95;;;;;;;;;;1429941;41;20403;-83
2021/06/30 01:49:41;;;;;;;12.00;6.25;;;;;;;;;;1430101;41;20439;-84
2021/06/30 01:50:51;;;;;;;7.75;4.53;;;;;;;;;;1429843;41;20409;-83
2021/06/30 01:51:52;;;;;;;9.15;4.50;;;;;;;;;;1430698;41;20701;-83
2021/06/30 01:52:54;;;;;;;7.20;4.38;;;;;;;;;;1437730;41;20451;-83
2021/06/30 01:54:03;;;;;;;7.33;4.13;;;;;;;;;;1433546;41;21380;-83
2021/06/30 01:55:11;;;;;;;6.67;3.97;;;;;;;;;;1430663;41;20475;-83
2021/06/30 01:56:22;;;;;;;7.60;3.97;;;;;;;;;;1434087;41;20432;-83
2021/06/30 01:57:28;;;;;;;6.05;3.92;;;;;;;;;;1438162;41;20875;-84
2021/06/30 01:58:35;;;;;;;8.73;4.38;;;;;;;;;;1433670;41;20843;-83
2021/06/30 01:59:41;;;;;;;9.43;4.47;;;;;;;;;;1434784;41;20417;-83
2021/06/30 02:00:50;;;;;;;8.45;3.67;;;;;;;;;;1434066;41;20408;-83
2021/06/30 02:01:57;;;;;;;8.17;3.40;;;;;;;;;;1435188;41;20542;-83
2021/06/30 02:03:01;;;;;;;5.90;3.10;;;;;;;;;;1433284;41;20424;-83
2021/06/30 02:04:08;;;;;;;9.23;3.30;;;;;;;;;;1434420;41;20400;-83
2021/06/30 02:05:23;;;;;;;6.53;3.03;;;;;;;;;;1434129;41;20405;-84
2021/06/30 02:06:27;;;;;;;4.88;2.92;;;;;;;;;;1436219;41;20426;-84
2021/06/30 02:07:31;;;;;;;4.40;2.88;;;;;;;;;;1437885;41;20422;-83
2021/06/30 02:08:37;;;;;;;6.63;2.55;;;;;;;;;;1437456;41;21435;-83
2021/06/30 02:09:44;;;;;;;6.20;2.50;;;;;;;;;;1437385;41;20706;-83
2021/06/30 02:10:50;;;;;;;6.95;3.13;;;;;;;;;;1437323;41;20778;-84
2021/06/30 02:11:57;;;;;;;6.15;2.85;;;;;;;;;;1429803;41;20418;-83
2021/06/30 02:13:05;;;;;;;5.20;3.03;;;;;;;;;;1432889;41;21117;-84
2021/06/30 02:14:08;;;;;;;8.63;3.00;;;;;;;;;;1437682;41;20411;-83
2021/06/30 02:15:18;;;;;;;7.63;3.25;;;;;;;;;;1436994;41;20418;-83
2021/06/30 02:16:25;;;;;;;5.88;3.30;;;;;;;;;;1434748;41;20412;-84
2021/06/30 02:17:32;;;;;;;9.00;3.00;;;;;;;;;;1436712;41;20606;-84
2021/06/30 02:18:34;;;;;;;9.82;2.78;;;;;;;;;;1438276;41;20450;-84
2021/06/30 02:19:40;;;;;;;7.03;3.00;;;;;;;;;;1437771;41;20438;-84
2021/06/30 02:20:47;;;;;;;9.80;3.85;;;;;;;;;;1437567;41;20799;-84
2021/06/30 02:21:53;;;;;;;8.45;3.13;;;;;;;;;;1437541;41;20409;-84
2021/06/30 02:23:00;;;;;;;4.43;3.22;;;;;;;;;;1422631;41;20437;-84
2021/06/30 02:24:06;;;;;;;6.40;2.63;;;;;;;;;;1427430;41;20412;-84
2021/06/30 02:25:16;;;;;;;7.05;3.08;;;;;;;;;;1429013;41;20429;-84
2021/06/30 02:26:23;;;;;;;11.00;4.10;;;;;;;;;;1433211;41;20417;-83
2021/06/30 02:27:30;;;;;;;8.38;3.67;;;;;;;;;;1438317;41;20399;-84
2021/06/30 02:28:37;;;;;;;6.97;3.30;;;;;;;;;;1436574;41;20757;-83
2021/06/30 02:29:43;;;;;;;9.93;3.90;;;;;;;;;;1435916;41;20423;-85
2021/06/30 02:30:50;;;;;;;7.38;3.28;;;;;;;;;;1438081;41;20400;-84
2021/06/30 02:31:51;;;;;;;6.53;3.55;;;;;;;;;;1437674;41;20438;-84
2021/06/30 02:32:53;;;;;;;7.80;3.53;;;;;;;;;;1438311;41;20435;-84
2021/06/30 02:34:00;;;;;;;5.18;3.47;;;;;;;;;;1433632;41;21133;-84
2021/06/30 02:35:09;;;;;;;9.27;3.95;;;;;;;;;;1435016;41;20423;-84
2021/06/30 02:36:15;;;;;;;4.57;3.10;;;;;;;;;;1433565;41;20405;-84
2021/06/30 02:37:22;;;;;;;9.02;3.88;;;;;;;;;;1434221;41;20530;-83
2021/06/30 02:38:28;;;;;;;5.20;3.90;;;;;;;;;;1433395;41;20417;-84
2021/06/30 02:39:35;;;;;;;8.00;3.40;;;;;;;;;;1430446;41;20430;-84
2021/06/30 02:40:42;;;;;;;8.52;3.85;;;;;;;;;;1429194;41;20765;-84
2021/06/30 02:41:48;;;;;;;6.15;3.58;;;;;;;;;;1428599;41;20543;-84
2021/06/30 02:42:50;;;;;;;6.88;4.18;;;;;;;;;;1432300;41;20440;-84
2021/06/30 02:43:52;;;;;;;6.32;3.67;;;;;;;;;;1437585;41;20431;-84
2021/06/30 02:44:58;;;;;;;7.63;4.00;;;;;;;;;;1437467;41;20423;-84
2021/06/30 02:46:05;;;;;;;6.28;3.65;;;;;;;;;;1433333;41;20655;-84
2021/06/30 02:47:11;;;;;;;6.75;3.90;;;;;;;;;;1430969;41;20445;-84
2021/06/30 02:48:18;;;;;;;4.88;4.00;;;;;;;;;;1430162;41;20499;-84
2021/06/30 02:49:20;;;;;;;7.95;4.10;;;;;;;;;;1428907;41;20427;-84
2021/06/30 02:50:26;;;;;;;7.13;4.00;;;;;;;;;;1434399;41;20405;-84
2021/06/30 02:51:33;;;;;;;8.32;4.07;;;;;;;;;;1433243;41;20397;-84
2021/06/30 02:52:35;;;;;;;8.05;4.20;;;;;;;;;;1432031;41;20495;-83
2021/06/30 02:53:42;;;;;;;7.53;4.20;;;;;;;;;;1438145;41;20419;-84
2021/06/30 02:54:43;;;;;;;8.23;4.63;;;;;;;;;;1437418;41;20434;-84
2021/06/30 02:55:50;;;;;;;5.95;4.32;;;;;;;;;;1435518;41;20589;-84
2021/06/30 02:56:51;;;;;;;6.90;5.05;;;;;;;;;;1434818;41;21073;-83
2021/06/30 02:57:53;;;;;;;11.80;5.43;;;;;;;;;;1439198;41;20457;-84
2021/06/30 02:59:00;;;;;;;9.77;4.93;;;;;;;;;;1435107;41;20389;-84
2021/06/30 03:00:10;;;;;;;8.52;4.40;;;;;;;;;;1433220;41;20519;-84
2021/06/30 03:01:17;;;;;;;10.73;4.63;;;;;;;;;;1436709;41;20463;-84
2021/06/30 03:02:24;;;;;;;9.32;5.57;;;;;;;;;;1439861;41;20401;-83
2021/06/30 03:03:31;;;;;;;10.40;5.85;;;;;;;;;;1438911;41;20789;-83
2021/06/30 03:04:37;;;;;;;10.93;5.43;;;;;;;;;;1436600;41;20414;-83
2021/06/30 03:05:44;;;;;;;10.55;5.93;;;;;;;;;;1440176;41;20417;-83
2021/06/30 03:06:50;;;;;;;9.90;5.82;;;;;;;;;;1442822;41;20399;-83
2021/06/30 03:07:52;;;;;;;10.35;5.75;;;;;;;;;;1442224;41;20671;-84
2021/06/30 03:08:58;;;;;;;13.27;5.88;;;;;;;;;;1441423;41;20475;-83
2021/06/30 03:10:07;;;;;;;10.35;5.47;;;;;;;;;;1439507;41;20472;-83
2021/06/30 03:11:09;;;;;;;9.70;5.35;;;;;;;;;;1438952;41;20419;-83
2021/06/30 03:12:15;;;;;;;7.05;5.65;;;;;;;;;;1439505;41;20402;-83
2021/06/30 03:13:22;;;;;;;9.00;5.57;;;;;;;;;;1438725;41;20399;-84
2021/06/30 03:14:29;;;;;;;9.98;5.90;;;;;;;;;;1438204;41;20392;-83
2021/06/30 03:15:36;;;;;;;8.73;5.68;;;;;;;;;;1433690;41;20405;-83
2021/06/30 03:16:37;;;;;;;9.85;5.68;;;;;;;;;;1433917;41;20489;-83
2021/06/30 03:17:42;;;;;;;11.18;6.13;;;;;;;;;;1429630;41;20426;-83
2021/06/30 03:18:48;;;;;;;11.02;5.70;;;;;;;;;;1431207;41;20414;-83
2021/06/30 03:19:55;;;;;;;12.75;6.10;;;;;;;;;;1436380;41;20814;-84
2021/06/30 03:20:56;;;;;;;9.77;5.60;;;;;;;;;;1434371;41;20487;-84
2021/06/30 03:22:03;;;;;;;8.93;5.15;;;;;;;;;;1437547;41;20425;-83
2021/06/30 03:23:09;;;;;;;8.93;4.75;;;;;;;;;;1438143;41;20475;-83
2021/06/30 03:24:11;;;;;;;11.07;5.95;;;;;;;;;;1433429;41;20433;-83
2021/06/30 03:25:17;;;;;;;8.50;5.50;;;;;;;;;;1430119;41;20410;-84
2021/06/30 03:26:25;;;;;;;8.35;4.55;;;;;;;;;;1433439;41;20420;-83
2021/06/30 03:27:32;;;;;;;9.82;5.50;;;;;;;;;;1430611;41;20845;-84
2021/06/30 03:28:38;;;;;;;8.13;3.92;;;;;;;;;;1434556;41;20823;-83
2021/06/30 03:29:45;;;;;;;6.82;4.47;;;;;;;;;;1438352;41;20414;-83
2021/06/30 03:30:51;;;;;;;11.32;5.40;;;;;;;;;;1437794;41;20419;-84
2021/06/30 03:31:58;;;;;;;10.93;4.90;;;;;;;;;;1437449;41;20408;-84
2021/06/30 03:33:04;;;;;;;7.70;4.47;;;;;;;;;;1438411;41;20391;-84
2021/06/30 03:34:11;;;;;;;6.50;4.25;;;;;;;;;;1437671;41;20418;-83
2021/06/30 03:35:17;;;;;;;8.43;5.00;;;;;;;;;;1438195;41;20423;-84
2021/06/30 03:36:24;;;;;;;9.27;4.60;;;;;;;;;;1433966;41;20420;-84
2021/06/30 03:37:30;;;;;;;9.77;4.30;;;;;;;;;;1430522;41;20659;-83
2021/06/30 03:38:37;;;;;;;7.97;3.90;;;;;;;;;;1434055;41;20587;-84
2021/06/30 03:39:43;;;;;;;10.80;4.90;;;;;;;;;;1435538;41;20425;-83
2021/06/30 03:40:50;;;;;;;9.98;5.15;;;;;;;;;;1440099;41;20415;-83
2021/06/30 03:41:56;;;;;;;7.63;4.75;;;;;;;;;;1432804;41;20406;-84
2021/06/30 03:43:03;;;;;;;9.02;4.68;;;;;;;;;;1433485;41;20438;-84
2021/06/30 03:44:09;;;;;;;7.03;4.68;;;;;;;;;;1438138;41;20409;-83
2021/06/30 03:45:16;;;;;;;8.27;4.65;;;;;;;;;;1441029;41;20414;-85
2021/06/30 03:46:22;;;;;;;7.37;4.87;;;;;;;;;;1440058;41;20542;-83
2021/06/30 03:47:29;;;;;;;8.55;4.97;;;;;;;;;;1439720;41;20410;-84
2021/06/30 03:48:36;;;;;;;6.95;4.63;;;;;;;;;;1440280;41;20870;-83
2021/06/30 03:49:42;;;;;;;9.80;5.03;;;;;;;;;;1443141;41;20422;-83
2021/06/30 03:50:49;;;;;;;10.48;4.68;;;;;;;;;;1443695;41;20395;-84
2021/06/30 03:51:55;;;;;;;7.57;4.85;;;;;;;;;;1443288;41;20403;-85
2021/06/30 03:53:02;;;;;;;12.57;5.57;;;;;;;;;;1436061;41;20420;-83
2021/06/30 03:54:09;;;;;;;8.20;5.45;;;;;;;;;;1431990;41;20407;-84
2021/06/30 03:55:16;;;;;;;8.95;5.55;;;;;;;;;;1432375;41;20414;-83
2021/06/30 03:56:24;;;;;;;9.00;5.70;;;;;;;;;;1435506;41;20425;-83
2021/06/30 03:57:26;;;;;;;7.50;5.28;;;;;;;;;;1436978;41;20435;-83
2021/06/30 03:58:27;;;;;;;13.80;4.95;;;;;;;;;;1430308;41;20418;-83
2021/06/30 03:59:35;;;;;;;6.97;4.85;;;;;;;;;;1434081;41;20420;-83
2021/06/30 04:00:41;;;;;;;10.32;5.13;;;;;;;;;;1438593;41;20445;-83
2021/06/30 04:01:50;;;;;;;9.07;5.00;;;;;;;;;;1433480;41;20432;-84
2021/06/30 04:02:53;;;;;;;13.47;5.83;;;;;;;;;;1433951;41;20562;-83
2021/06/30 04:03:55;;;;;;;10.02;5.78;;;;;;;;;;1433970;41;20417;-83
2021/06/30 04:05:01;;;;;;;9.00;5.13;;;;;;;;;;1425871;41;20419;-84
2021/06/30 04:06:03;;;;;;;8.80;5.25;;;;;;;;;;1425970;41;20420;-83
2021/06/30 04:07:12;;;;;;;12.43;4.93;;;;;;;;;;1426325;41;20941;-83
2021/06/30 04:08:18;;;;;;;14.30;6.03;;;;;;;;;;1433360;41;20416;-83
2021/06/30 04:09:25;;;;;;;11.10;5.45;;;;;;;;;;1435137;41;20513;-84
2021/06/30 04:10:31;;;;;;;9.35;5.65;;;;;;;;;;1438009;41;20402;-83
2021/06/30 04:11:38;;;;;;;10.48;5.25;;;;;;;;;;1437623;41;20411;-83
2021/06/30 04:12:39;;;;;;;12.10;5.30;;;;;;;;;;1437562;41;20420;-84
2021/06/30 04:13:46;;;;;;;13.95;5.70;;;;;;;;;;1433022;41;20433;-83
2021/06/30 04:14:52;;;;;;;12.80;5.38;;;;;;;;;;1434193;41;20517;-83
2021/06/30 04:15:59;;;;;;;11.85;5.13;;;;;;;;;;1436932;41;20462;-83
2021/06/30 04:17:05;;;;;;;9.35;4.95;;;;;;;;;;1432477;41;20532;-83
2021/06/30 04:18:14;;;;;;;11.20;5.75;;;;;;;;;;1430359;41;20411;-83
2021/06/30 04:19:21;;;;;;;10.57;5.40;;;;;;;;;;1425142;41;20424;-83
2021/06/30 04:20:28;;;;;;;11.77;5.90;;;;;;;;;;1426499;41;20501;-83
2021/06/30 04:21:34;;;;;;;10.65;5.57;;;;;;;;;;1429697;41;20483;-83
2021/06/30 04:22:41;;;;;;;11.82;5.47;;;;;;;;;;1437220;41;20423;-83
2021/06/30 04:23:42;;;;;;;13.43;5.95;;;;;;;;;;1441326;41;20421;-83
2021/06/30 04:24:49;;;;;;;9.00;5.70;;;;;;;;;;1440848;41;20563;-84
2021/06/30 04:25:50;;;;;;;10.23;5.60;;;;;;;;;;1436693;41;21022;-83
2021/06/30 04:26:56;;;;;;;13.95;6.68;;;;;;;;;;1433366;41;20445;-84
2021/06/30 04:27:58;;;;;;;10.30;4.97;;;;;;;;;;1436270;41;20454;-83
2021/06/30 04:29:04;;;;;;;12.88;6.18;;;;;;;;;;1433756;41;20437;-83
2021/06/30 04:30:09;;;;;;;9.98;5.07;;;;;;;;;;1432782;41;20424;-83
2021/06/30 04:31:16;;;;;;;15.85;5.35;;;;;;;;;;1433320;41;20408;-83
2021/06/30 04:32:22;;;;;;;8.88;5.50;;;;;;;;;;1429150;41;20410;-84
2021/06/30 04:33:30;;;;;;;13.63;5.68;;;;;;;;;;1426419;41;20412;-84
2021/06/30 04:34:31;;;;;;;11.95;5.82;;;;;;;;;;1424116;41;20447;-83
2021/06/30 04:35:39;;;;;;;15.77;6.38;;;;;;;;;;1422819;41;20413;-83
2021/06/30 04:36:40;;;;;;;13.93;5.38;;;;;;;;;;1430000;41;21226;-83
2021/06/30 04:37:42;;;;;;;14.63;5.97;;;;;;;;;;1428612;41;20426;-83
2021/06/30 04:38:49;;;;;;;13.25;5.35;;;;;;;;;;1429816;41;20423;-83
2021/06/30 04:39:50;;;;;;;11.35;5.45;;;;;;;;;;1425609;41;20424;-83
2021/06/30 04:40:57;;;;;;;14.57;6.32;;;;;;;;;;1427704;41;20685;-85
2021/06/30 04:42:04;;;;;;;11.38;6.35;;;;;;;;;;1433657;41;20826;-84
2021/06/30 04:43:10;;;;;;;9.77;5.78;;;;;;;;;;1436675;41;20848;-83
2021/06/30 04:44:17;;;;;;;13.17;5.90;;;;;;;;;;1432914;41;20819;-84
2021/06/30 04:45:23;;;;;;;14.13;6.22;;;;;;;;;;1434051;41;20424;-84
2021/06/30 04:46:25;;;;;;;8.65;5.78;;;;;;;;;;1436214;41;20452;-83
2021/06/30 04:47:32;;;;;;;13.57;5.57;;;;;;;;;;1432829;41;20448;-84
2021/06/30 04:48:39;;;;;;;13.48;5.95;;;;;;;;;;1430159;41;20509;-84
2021/06/30 04:49:46;;;;;;;11.80;6.72;;;;;;;;;;1433360;41;20508;-83
2021/06/30 04:50:52;;;;;;;11.43;5.93;;;;;;;;;;1433843;41;20409;-83
2021/06/30 04:51:59;;;;;;;11.40;5.95;;;;;;;;;;1433301;41;20417;-84
2021/06/30 04:53:05;;;;;;;14.48;6.80;;;;;;;;;;1429433;41;20414;-83
2021/06/30 04:54:07;;;;;;;11.80;6.25;;;;;;;;;;1429643;41;20725;-83
2021/06/30 04:55:14;;;;;;;12.38;6.50;;;;;;;;;;1429949;41;20470;-84
2021/06/30 04:56:16;;;;;;;11.43;6.88;;;;;;;;;;1433607;41;20818;-84
2021/06/30 04:57:22;;;;;;;13.20;7.32;;;;;;;;;;1429156;41;20399;-83
2021/06/30 04:58:30;;;;;;;14.82;7.30;;;;;;;;;;1430456;41;20406;-84
2021/06/30 04:59:38;;;;;;;15.05;7.43;;;;;;;;;;1436330;41;20419;-83
2021/06/30 05:00:44;;;;;;;15.38;6.30;;;;;;;;;;1437371;41;20859;-83
2021/06/30 05:01:51;;;;;;;14.97;7.33;;;;;;;;;;1435584;41;20417;-83
2021/06/30 05:02:59;;;;;;;14.00;7.45;;;;;;;;;;1433428;41;20420;-83
2021/06/30 05:04:05;;;;;;;17.57;6.50;;;;;;;;;;1434327;41;20707;-83
2021/06/30 05:05:12;;;;;;;13.63;7.10;;;;;;;;;;1433237;41;20806;-84
2021/06/30 05:06:19;;;;;;;12.18;7.50;;;;;;;;;;1430585;41;20419;-84
2021/06/30 05:07:25;;;;;;;11.27;6.85;;;;;;;;;;1426438;41;20408;-83
2021/06/30 05:08:27;;;;;;;15.00;7.75;;;;;;;;;;1430188;41;20425;-85
2021/06/30 05:09:34;;;;;;;11.45;7.03;;;;;;;;;;1433804;41;20405;-86
2021/06/30 05:10:40;;;;;;;14.77;7.33;;;;;;;;;;1435078;41;20990;-86
2021/06/30 05:11:42;;;;;;;14.45;7.20;;;;;;;;;;1433923;41;20425;-86
2021/06/30 05:12:48;;;;;;;12.73;7.32;;;;;;;;;;1434449;41;20425;-86
2021/06/30 05:13:55;;;;;;;14.38;7.38;;;;;;;;;;1430760;41;20441;-85
2021/06/30 05:15:02;;;;;;;16.63;7.63;;;;;;;;;;1434391;41;20444;-87
2021/06/30 05:16:09;;;;;;;10.50;6.32;;;;;;;;;;1422913;41;20407;-84
2021/06/30 05:17:15;;;;;;;13.95;7.20;;;;;;;;;;1427202;41;21101;-82
2021/06/30 05:18:22;;;;;;;12.73;7.55;;;;;;;;;;1433094;41;20695;-83
2021/06/30 05:19:29;;;;;;;17.30;8.13;;;;;;;;;;1434225;41;20449;-83
2021/06/30 05:20:36;;;;;;;12.70;7.45;;;;;;;;;;1433129;41;20416;-82
2021/06/30 05:21:42;;;;;;;13.82;8.10;;;;;;;;;;1434242;41;20537;-83
2021/06/30 05:22:49;;;;;;;14.25;7.50;;;;;;;;;;1436092;41;20467;-82
2021/06/30 05:23:55;;;;;;;15.35;8.13;;;;;;;;;;1436947;41;20830;-87
2021/06/30 05:25:03;;;;;;;14.50;7.82;;;;;;;;;;1437883;41;20426;-83
2021/06/30 05:26:09;;;;;;;15.70;8.57;;;;;;;;;;1435391;41;20464;-85
2021/06/30 05:27:16;;;;;;;16.17;7.93;;;;;;;;;;1434259;41;20409;-86
2021/06/30 05:28:23;;;;;;;14.98;8.23;;;;;;;;;;1435529;41;20517;-84
2021/06/30 05:29:30;;;;;;;16.77;8.48;;;;;;;;;;1434759;41;20417;-85
2021/06/30 05:30:36;;;;;;;19.60;8.70;;;;;;;;;;1434963;41;20838;-86
2021/06/30 05:31:43;;;;;;;16.50;8.57;;;;;;;;;;1438582;41;20526;-84
2021/06/30 05:32:49;;;;;;;20.67;8.55;;;;;;;;;;1436507;41;20762;-86
2021/06/30 05:33:56;;;;;;;19.40;9.15;;;;;;;;;;1436969;41;20449;-86
2021/06/30 05:35:03;;;;;;;20.50;8.87;;;;;;;;;;1437678;41;20429;-87
2021/06/30 05:36:04;;;;;;;19.38;9.13;;;;;;;;;;1438821;41;20472;-86
2021/06/30 05:37:06;;;;;;;18.60;8.82;;;;;;;;;;1437019;41;20465;-85
2021/06/30 05:38:12;;;;;;;18.92;8.75;;;;;;;;;;1435760;41;20411;-84
2021/06/30 05:39:20;;;;;;;14.48;8.20;;;;;;;;;;1437081;41;20411;-84
2021/06/30 05:40:27;;;;;;;11.55;7.63;;;;;;;;;;1439234;41;20476;-88
2021/06/30 05:41:30;;;;;;;18.85;7.78;;;;;;;;;;1438637;41;20478;-89
2021/06/30 05:42:38;;;;;;;11.37;7.27;;;;;;;;;;1435420;41;20941;-85
2021/06/30 05:43:45;;;;;;;12.10;7.63;;;;;;;;;;1436258;41;20612;-86
2021/06/30 05:44:49;;;;;;;14.73;7.30;;;;;;;;;;1434164;41;20417;-84
2021/06/30 05:45:56;;;;;;;13.60;7.78;;;;;;;;;;1435016;41;20408;-85
2021/06/30 05:47:03;;;;;;;14.17;6.37;;;;;;;;;;1436767;41;20541;-86
2021/06/30 05:48:09;;;;;;;16.15;6.78;;;;;;;;;;1435164;41;20448;-85
2021/06/30 05:49:17;;;;;;;12.85;7.40;;;;;;;;;;1436675;41;20409;-85
2021/06/30 05:50:23;;;;;;;17.67;8.15;;;;;;;;;;1435150;41;20799;-84
2021/06/30 05:51:30;;;;;;;17.60;8.27;;;;;;;;;;1437407;41;20436;-85
2021/06/30 05:52:31;;;;;;;13.30;6.85;;;;;;;;;;1441476;41;20422;-83
2021/06/30 05:53:39;;;;;;;17.42;7.35;;;;;;;;;;1437997;41;20415;-83
2021/06/30 05:54:45;;;;;;;16.98;8.00;;;;;;;;;;1436685;41;20427;-83
2021/06/30 05:55:52;;;;;;;18.80;8.00;;;;;;;;;;1425895;41;20431;-83
2021/06/30 05:56:59;;;;;;;15.43;7.78;;;;;;;;;;1429149;41;20891;-83
2021/06/30 05:58:05;;;;;;;15.02;7.68;;;;;;;;;;1430340;41;20426;-83
2021/06/30 05:59:13;;;;;;;15.05;7.35;;;;;;;;;;1435115;41;20463;-82
2021/06/30 06:00:21;;;;;;;17.17;7.57;;;;;;;;;;1438313;41;20644;-83
2021/06/30 06:01:28;;;;;;;18.55;7.45;;;;;;;;;;1437676;41;20470;-82
2021/06/30 06:02:34;;;;;;;14.70;7.28;;;;;;;;;;1439280;41;20399;-82
2021/06/30 06:03:36;;;;;;;16.55;8.60;;;;;;;;;;1434225;41;20421;-81
2021/06/30 06:04:38;;;;;;;16.67;7.33;;;;;;;;;;1433935;41;20446;-82
2021/06/30 06:05:39;;;;;;;15.18;7.85;;;;;;;;;;1438635;41;20419;-81
2021/06/30 06:06:46;;;;;;;15.18;7.88;;;;;;;;;;1441292;41;20477;-81
2021/06/30 06:07:52;;;;;;;14.97;7.20;;;;;;;;;;1438260;41;20401;-82
2021/06/30 06:08:59;;;;;;;19.42;7.90;;;;;;;;;;1438383;41;20446;-82
2021/06/30 06:10:08;;;;;;;14.63;7.72;;;;;;;;;;1434626;41;20425;-81
2021/06/30 06:11:14;;;;;;;18.48;8.20;;;;;;;;;;1432605;41;20485;-81
2021/06/30 06:12:20;;;;;;;16.05;7.65;;;;;;;;;;1430270;41;20418;-81
2021/06/30 06:13:27;;;;;;;17.85;7.68;;;;;;;;;;1433806;41;20394;-81
2021/06/30 06:14:34;;;;;;;16.58;7.53;;;;;;;;;;1433101;41;20480;-81
2021/06/30 06:15:40;;;;;;;13.65;7.43;;;;;;;;;;1430969;41;20449;-82
2021/06/30 06:16:47;;;;;;;12.77;6.50;;;;;;;;;;1435169;41;20967;-82
2021/06/30 06:17:53;;;;;;;13.77;6.47;;;;;;;;;;1443016;41;20429;-82
2021/06/30 06:19:00;;;;;;;18.23;6.65;;;;;;;;;;1444316;41;20420;-82
2021/06/30 06:20:06;;;;;;;19.85;7.45;;;;;;;;;;1440208;41;20427;-82
2021/06/30 06:21:13;;;;;;;17.45;7.85;;;;;;;;;;1439189;41;20441;-82
2021/06/30 06:22:20;;;;;;;13.95;8.15;;;;;;;;;;1441931;41;20419;-82
2021/06/30 06:23:27;;;;;;;17.88;8.25;;;;;;;;;;1438010;41;20928;-81
2021/06/30 06:24:29;;;;;;;12.65;6.60;;;;;;;;;;1436048;41;20445;-81
2021/06/30 06:25:35;;;;;;;15.35;7.13;;;;;;;;;;1434990;41;20437;-82
2021/06/30 06:26:42;;;;;;;15.70;7.47;;;;;;;;;;1431279;41;20639;-82
2021/06/30 06:27:48;;;;;;;19.42;7.03;;;;;;;;;;1439455;41;20541;-83
2021/06/30 06:28:50;;;;;;;15.77;6.55;;;;;;;;;;1439877;41;20424;-83
2021/06/30 06:29:57;;;;;;;14.23;7.20;;;;;;;;;;1438589;41;20510;-83
2021/06/30 06:31:00;;;;;;;19.60;7.63;;;;;;;;;;1444103;41;20396;-82
2021/06/30 06:32:07;;;;;;;16.35;7.57;;;;;;;;;;1432903;41;20426;-82